Time;durP1;ratioP1;P1;durP2;ratioP2;P2;SDS_P1;SDS_P2;PMS_P1;PMS_P2;Temp;Humidity;BMP_temperature;BMP_pressure;BME280_temperature;BME280_humidity;BME280_pressure;Samples;Min_cycle;Max_cycle;Signal;HPM_P1;HPM_P2
2023/07/14 00:02:07;;;;;;;2.55;1.60;;;;;;;;;;5097610;28;20261;-61
2023/07/14 00:04:35;;;;;;;3.33;1.70;;;;;;;;;;5096769;28;20204;-61
2023/07/14 00:07:03;;;;;;;3.28;1.77;;;;;;;;;;5097098;28;20297;-61
2023/07/14 00:09:33;;;;;;;3.45;1.70;;;;;;;;;;5096464;28;20204;-61
2023/07/14 00:12:02;;;;;;;2.00;1.50;;;;;;;;;;5097407;28;20229;-61
2023/07/14 00:14:31;;;;;;;1.55;1.40;;;;;;;;;;5097363;28;20211;-61
2023/07/14 00:17:00;;;;;;;2.40;1.60;;;;;;;;;;5097562;28;20306;-60
2023/07/14 00:19:27;;;;;;;3.85;1.70;;;;;;;;;;5097327;28;20287;-61
2023/07/14 00:21:55;;;;;;;1.83;1.45;;;;;;;;;;5097327;28;20203;-60
2023/07/14 00:24:23;;;;;;;2.75;1.70;;;;;;;;;;5096937;28;20203;-60
2023/07/14 00:26:55;;;;;;;2.58;1.70;;;;;;;;;;5097385;28;20223;-60
2023/07/14 00:29:34;;;;;;;2.15;1.50;;;;;;;;;;5097442;28;20211;-60
2023/07/14 00:32:02;;;;;;;3.15;1.70;;;;;;;;;;5097335;28;20204;-61
2023/07/14 00:34:30;;;;;;;2.38;1.50;;;;;;;;;;5097166;28;20293;-61
2023/07/14 00:36:57;;;;;;;2.15;1.83;;;;;;;;;;5097305;28;20585;-61
2023/07/14 00:39:26;;;;;;;2.53;1.52;;;;;;;;;;5097089;28;20273;-61
2023/07/14 00:41:55;;;;;;;2.72;1.80;;;;;;;;;;5097236;28;20204;-61
2023/07/14 00:44:22;;;;;;;2.40;1.92;;;;;;;;;;5096943;28;20294;-61
2023/07/14 00:46:50;;;;;;;2.95;1.98;;;;;;;;;;5096370;28;20304;-61
2023/07/14 00:49:21;;;;;;;2.92;2.00;;;;;;;;;;5097314;28;20204;-60
2023/07/14 00:51:49;;;;;;;3.40;1.90;;;;;;;;;;5096087;28;20250;-61
2023/07/14 00:54:25;;;;;;;2.33;1.42;;;;;;;;;;5091239;28;20301;-61
2023/07/14 00:56:55;;;;;;;2.45;1.60;;;;;;;;;;5076677;28;20266;-60
2023/07/14 00:59:23;;;;;;;1.70;1.60;;;;;;;;;;5076855;28;20536;-60
2023/07/14 01:02:09;;;;;;;4.13;1.98;;;;;;;;;;5076746;28;20211;-60
2023/07/14 01:04:37;;;;;;;1.80;1.70;;;;;;;;;;5076870;28;20273;-60
2023/07/14 01:07:05;;;;;;;2.10;1.70;;;;;;;;;;5076753;28;20273;-61
2023/07/14 01:09:34;;;;;;;5.07;2.10;;;;;;;;;;5076487;28;20266;-60
2023/07/14 01:12:04;;;;;;;2.38;1.70;;;;;;;;;;5076079;28;20208;-61
2023/07/14 01:14:34;;;;;;;3.22;1.85;;;;;;;;;;5076893;28;20204;-60
2023/07/14 01:17:03;;;;;;;3.03;1.95;;;;;;;;;;5077166;28;20203;-61
2023/07/14 01:19:33;;;;;;;2.13;1.67;;;;;;;;;;5076785;28;20266;-60
2023/07/14 01:22:08;;;;;;;2.35;1.90;;;;;;;;;;5079147;28;20204;-61
2023/07/14 01:24:38;;;;;;;2.22;1.90;;;;;;;;;;5080373;28;20672;-60
2023/07/14 01:27:09;;;;;;;2.78;1.73;;;;;;;;;;5080034;28;20236;-61
2023/07/14 01:29:37;;;;;;;2.55;1.80;;;;;;;;;;5080179;28;20589;-61
2023/07/14 01:32:10;;;;;;;3.78;1.70;;;;;;;;;;5080179;28;20470;-60
2023/07/14 01:34:38;;;;;;;3.10;1.90;;;;;;;;;;5080304;28;20266;-60
2023/07/14 01:37:06;;;;;;;2.50;1.80;;;;;;;;;;5079929;28;20815;-61
2023/07/14 01:39:34;;;;;;;3.75;1.85;;;;;;;;;;5082072;28;20212;-61
2023/07/14 01:42:02;;;;;;;1.92;1.73;;;;;;;;;;5100186;28;20298;-61
2023/07/14 01:44:30;;;;;;;3.35;1.85;;;;;;;;;;5100016;28;20208;-60
2023/07/14 01:46:59;;;;;;;2.45;1.60;;;;;;;;;;5100190;28;20281;-60
2023/07/14 01:49:36;;;;;;;3.35;1.90;;;;;;;;;;5099576;28;20281;-61
2023/07/14 01:52:07;;;;;;;1.90;1.80;;;;;;;;;;5099729;28;20301;-60
2023/07/14 01:54:36;;;;;;;3.92;1.80;;;;;;;;;;5099562;28;20631;-60
2023/07/14 01:57:05;;;;;;;1.95;1.80;;;;;;;;;;5099846;28;20199;-61
2023/07/14 01:59:35;;;;;;;2.35;1.90;;;;;;;;;;5100205;28;20519;-61
2023/07/14 02:02:04;;;;;;;2.72;1.80;;;;;;;;;;5100123;28;20607;-61
2023/07/14 02:04:32;;;;;;;2.10;1.90;;;;;;;;;;5099729;28;20204;-60
2023/07/14 02:07:01;;;;;;;2.03;1.83;;;;;;;;;;5099981;28;20247;-61
2023/07/14 02:09:29;;;;;;;2.10;1.85;;;;;;;;;;5099494;28;20659;-61
2023/07/14 02:11:59;;;;;;;2.00;1.80;;;;;;;;;;5099647;28;20291;-60
2023/07/14 02:14:30;;;;;;;3.75;1.83;;;;;;;;;;5099709;28;20214;-61
2023/07/14 02:17:02;;;;;;;2.35;2.00;;;;;;;;;;5099882;28;20543;-61
2023/07/14 02:19:30;;;;;;;1.92;1.70;;;;;;;;;;5099044;28;20215;-61
2023/07/14 02:21:58;;;;;;;2.40;1.83;;;;;;;;;;5099541;28;20222;-61
2023/07/14 02:24:27;;;;;;;2.50;2.00;;;;;;;;;;5099361;28;20214;-60
2023/07/14 02:26:58;;;;;;;2.25;1.85;;;;;;;;;;5098931;28;20495;-61
2023/07/14 02:29:27;;;;;;;2.03;1.80;;;;;;;;;;5099054;28;20567;-61
2023/07/14 02:31:57;;;;;;;1.85;1.63;;;;;;;;;;5098890;28;20203;-61
2023/07/14 02:34:30;;;;;;;2.63;1.70;;;;;;;;;;5099002;28;20491;-60
2023/07/14 02:37:00;;;;;;;2.90;1.83;;;;;;;;;;5099462;28;20200;-61
2023/07/14 02:39:28;;;;;;;3.17;1.92;;;;;;;;;;5098741;28;20226;-60
2023/07/14 02:41:57;;;;;;;2.38;1.70;;;;;;;;;;5098746;28;20215;-61
2023/07/14 02:44:28;;;;;;;2.22;1.80;;;;;;;;;;5099012;28;20226;-61
2023/07/14 02:46:59;;;;;;;2.20;2.00;;;;;;;;;;5098922;28;20227;-61
2023/07/14 02:49:28;;;;;;;2.22;2.03;;;;;;;;;;5098532;28;20211;-61
2023/07/14 02:51:56;;;;;;;2.13;1.90;;;;;;;;;;5098980;28;20489;-61
2023/07/14 02:54:25;;;;;;;2.22;2.03;;;;;;;;;;5098334;28;20292;-61
2023/07/14 02:56:53;;;;;;;2.40;2.00;;;;;;;;;;5098671;28;20253;-61
2023/07/14 02:59:21;;;;;;;2.80;2.00;;;;;;;;;;5098745;28;20208;-60
2023/07/14 03:01:49;;;;;;;2.22;1.77;;;;;;;;;;5098492;28;20571;-61
2023/07/14 03:04:17;;;;;;;2.28;1.92;;;;;;;;;;5098369;28;20259;-61
2023/07/14 03:06:46;;;;;;;2.70;2.00;;;;;;;;;;5098886;28;20503;-61
2023/07/14 03:09:16;;;;;;;2.50;1.73;;;;;;;;;;5098494;28;20215;-60
2023/07/14 03:11:44;;;;;;;2.58;1.70;;;;;;;;;;5098319;28;20597;-61
2023/07/14 03:14:12;;;;;;;2.03;1.83;;;;;;;;;;5098323;28;20247;-61
2023/07/14 03:16:40;;;;;;;2.30;2.10;;;;;;;;;;5098084;28;20552;-61
2023/07/14 03:19:07;;;;;;;2.22;1.85;;;;;;;;;;5098018;28;20282;-61
2023/07/14 03:21:35;;;;;;;2.78;1.90;;;;;;;;;;5098097;28;20231;-61
2023/07/14 03:24:05;;;;;;;2.45;1.60;;;;;;;;;;5097651;28;20268;-61
2023/07/14 03:26:33;;;;;;;3.50;2.10;;;;;;;;;;5097821;28;20611;-60
2023/07/14 03:29:01;;;;;;;3.47;2.13;;;;;;;;;;5098166;28;20215;-61
2023/07/14 03:31:28;;;;;;;1.90;1.70;;;;;;;;;;5097587;28;20210;-61
2023/07/14 03:33:55;;;;;;;3.42;1.85;;;;;;;;;;5097579;28;20207;-61
2023/07/14 03:36:23;;;;;;;1.98;1.80;;;;;;;;;;5097155;28;20473;-61
2023/07/14 03:39:11;;;;;;;2.17;1.98;;;;;;;;;;5098158;28;20555;-61
2023/07/14 03:41:40;;;;;;;2.83;2.05;;;;;;;;;;5097337;28;20603;-61
2023/07/14 03:44:07;;;;;;;3.15;2.13;;;;;;;;;;5097075;28;20214;-61
2023/07/14 03:46:35;;;;;;;3.08;2.17;;;;;;;;;;5097189;28;20453;-61
2023/07/14 03:49:02;;;;;;;2.60;2.00;;;;;;;;;;5097908;28;20208;-61
2023/07/14 03:51:30;;;;;;;2.33;2.13;;;;;;;;;;5097341;28;20250;-61
2023/07/14 03:53:57;;;;;;;3.20;1.80;;;;;;;;;;5097479;28;20290;-61
2023/07/14 03:56:25;;;;;;;2.50;1.92;;;;;;;;;;5097170;28;20210;-60
2023/07/14 03:58:53;;;;;;;2.33;2.00;;;;;;;;;;5097126;28;20307;-60
2023/07/14 04:01:21;;;;;;;2.35;1.88;;;;;;;;;;5097327;28;20204;-61
2023/07/14 04:03:48;;;;;;;4.25;2.00;;;;;;;;;;5097683;28;20203;-60
2023/07/14 04:06:16;;;;;;;2.70;1.95;;;;;;;;;;5096808;28;20218;-61
2023/07/14 04:08:44;;;;;;;2.60;2.03;;;;;;;;;;5097118;28;20200;-60
2023/07/14 04:11:12;;;;;;;2.30;1.92;;;;;;;;;;5097314;28;20265;-61
2023/07/14 04:13:40;;;;;;;2.20;2.00;;;;;;;;;;5097315;28;20203;-61
2023/07/14 04:16:09;;;;;;;2.17;1.90;;;;;;;;;;5096988;28;20203;-61
2023/07/14 04:18:36;;;;;;;2.00;1.80;;;;;;;;;;5096648;28;20203;-61
2023/07/14 04:21:07;;;;;;;3.55;2.00;;;;;;;;;;5096983;28;20204;-61
2023/07/14 04:23:34;;;;;;;1.85;1.75;;;;;;;;;;5096722;28;20211;-61
2023/07/14 04:26:02;;;;;;;2.70;2.20;;;;;;;;;;5096716;28;20230;-61
2023/07/14 04:28:29;;;;;;;3.63;2.00;;;;;;;;;;5096023;28;20265;-60
2023/07/14 04:30:57;;;;;;;3.53;2.20;;;;;;;;;;5096153;28;20587;-60
2023/07/14 04:33:26;;;;;;;6.22;2.30;;;;;;;;;;5097035;28;20196;-60
2023/07/14 04:35:54;;;;;;;3.03;2.15;;;;;;;;;;5096415;28;20209;-61
2023/07/14 04:38:23;;;;;;;2.90;2.40;;;;;;;;;;5095624;28;20700;-61
2023/07/14 04:40:51;;;;;;;2.42;2.22;;;;;;;;;;5096219;28;20199;-61
2023/07/14 04:43:19;;;;;;;3.67;2.38;;;;;;;;;;5095845;28;20207;-60
2023/07/14 04:45:47;;;;;;;3.40;2.33;;;;;;;;;;5096080;28;20253;-60
2023/07/14 04:48:16;;;;;;;2.45;2.13;;;;;;;;;;5096242;28;20223;-61
2023/07/14 04:50:52;;;;;;;2.35;2.15;;;;;;;;;;5095006;28;20295;-60
2023/07/14 04:53:21;;;;;;;3.47;2.40;;;;;;;;;;5088746;28;20226;-61
2023/07/14 04:55:49;;;;;;;2.40;2.20;;;;;;;;;;5078034;28;20673;-61
2023/07/14 04:58:18;;;;;;;2.30;2.10;;;;;;;;;;5080271;28;20254;-60
2023/07/14 05:00:52;;;;;;;2.75;2.55;;;;;;;;;;5079312;28;20475;-60
2023/07/14 05:03:20;;;;;;;2.60;2.40;;;;;;;;;;5081214;28;20285;-60
2023/07/14 05:05:57;;;;;;;3.17;2.45;;;;;;;;;;5094743;28;20204;-60
2023/07/14 05:08:26;;;;;;;2.40;2.20;;;;;;;;;;5079091;28;20517;-60
2023/07/14 05:10:56;;;;;;;2.60;2.40;;;;;;;;;;5078987;28;20303;-61
2023/07/14 05:13:25;;;;;;;2.97;2.30;;;;;;;;;;5079144;28;20200;-61
2023/07/14 05:15:56;;;;;;;2.33;2.10;;;;;;;;;;5079290;28;20302;-61
2023/07/14 05:18:25;;;;;;;2.72;2.47;;;;;;;;;;5079328;28;20200;-61
2023/07/14 05:20:59;;;;;;;3.08;2.75;;;;;;;;;;5092589;28;20596;-61
2023/07/14 05:23:28;;;;;;;3.00;2.70;;;;;;;;;;5099035;28;20210;-61
2023/07/14 05:25:56;;;;;;;3.92;2.60;;;;;;;;;;5099522;28;20298;-61
2023/07/14 05:28:28;;;;;;;2.70;2.50;;;;;;;;;;5099174;28;20224;-61
2023/07/14 05:30:57;;;;;;;2.90;2.65;;;;;;;;;;5099189;28;20591;-61
2023/07/14 05:33:25;;;;;;;3.92;2.88;;;;;;;;;;5092961;28;20211;-60
2023/07/14 05:35:55;;;;;;;5.43;4.20;;;;;;;;;;5099299;28;20307;-61
2023/07/14 05:38:22;;;;;;;12.40;8.35;;;;;;;;;;5098769;28;20311;-61
2023/07/14 05:41:08;;;;;;;23.02;12.93;;;;;;;;;;5098106;28;20230;-61
2023/07/14 05:43:37;;;;;;;24.73;13.77;;;;;;;;;;5097003;28;20662;-60
2023/07/14 05:46:05;;;;;;;22.80;14.07;;;;;;;;;;5094139;28;20235;-60
2023/07/14 05:48:34;;;;;;;18.42;11.73;;;;;;;;;;5087095;28;20263;-60
2023/07/14 05:51:18;;;;;;;15.32;9.43;;;;;;;;;;5093571;28;20200;-61
2023/07/14 05:53:47;;;;;;;11.15;8.45;;;;;;;;;;5090103;28;20204;-61
2023/07/14 05:56:16;;;;;;;9.73;7.35;;;;;;;;;;5091524;28;20211;-60
2023/07/14 05:58:43;;;;;;;9.52;5.93;;;;;;;;;;5094468;28;20205;-61
2023/07/14 06:01:10;;;;;;;8.05;5.40;;;;;;;;;;5094385;28;20223;-61
2023/07/14 06:03:41;;;;;;;6.97;4.55;;;;;;;;;;5094754;28;20592;-61
2023/07/14 06:06:09;;;;;;;6.10;3.97;;;;;;;;;;5087490;28;20254;-61
2023/07/14 06:08:39;;;;;;;4.50;3.80;;;;;;;;;;5096061;28;20515;-61
2023/07/14 06:11:11;;;;;;;4.63;3.60;;;;;;;;;;5098728;28;20587;-61
2023/07/14 06:13:40;;;;;;;4.90;3.55;;;;;;;;;;5097627;28;20203;-60
2023/07/14 06:16:10;;;;;;;3.83;3.05;;;;;;;;;;5097576;28;20221;-61
2023/07/14 06:18:39;;;;;;;3.60;2.92;;;;;;;;;;5097031;28;20200;-61
2023/07/14 06:21:08;;;;;;;7.18;3.30;;;;;;;;;;5097488;28;20202;-61
2023/07/14 06:23:36;;;;;;;4.40;3.00;;;;;;;;;;5097795;28;20230;-60
2023/07/14 06:26:05;;;;;;;4.25;3.17;;;;;;;;;;5079151;28;20307;-60
2023/07/14 06:28:37;;;;;;;4.97;3.00;;;;;;;;;;5097603;28;20268;-61
2023/07/14 06:31:06;;;;;;;3.78;2.63;;;;;;;;;;5097254;28;20203;-60
2023/07/14 06:33:34;;;;;;;4.07;2.90;;;;;;;;;;5077786;28;20745;-60
2023/07/14 06:36:03;;;;;;;3.63;2.80;;;;;;;;;;5093777;28;20212;-61
2023/07/14 06:38:30;;;;;;;3.95;2.72;;;;;;;;;;5096077;28;20198;-61
2023/07/14 06:40:58;;;;;;;3.85;2.67;;;;;;;;;;5097282;28;20210;-60
2023/07/14 06:43:25;;;;;;;4.28;2.67;;;;;;;;;;5097449;28;20204;-61
2023/07/14 06:45:54;;;;;;;3.47;2.90;;;;;;;;;;5096728;28;20203;-60
2023/07/14 06:48:22;;;;;;;5.53;2.75;;;;;;;;;;5097140;28;20223;-61
2023/07/14 06:50:50;;;;;;;3.22;2.67;;;;;;;;;;5096663;28;20203;-60
2023/07/14 06:53:18;;;;;;;2.72;2.50;;;;;;;;;;5096070;28;20203;-60
2023/07/14 06:55:46;;;;;;;4.35;2.60;;;;;;;;;;5095335;28;20262;-60
2023/07/14 06:58:13;;;;;;;3.88;2.63;;;;;;;;;;5095842;28;20200;-60
2023/07/14 07:00:41;;;;;;;3.25;2.83;;;;;;;;;;5096308;28;20253;-60
2023/07/14 07:03:10;;;;;;;3.10;2.40;;;;;;;;;;5095841;28;20210;-60
2023/07/14 07:05:38;;;;;;;2.80;2.60;;;;;;;;;;5096255;28;20199;-61
2023/07/14 07:08:06;;;;;;;2.58;2.30;;;;;;;;;;5096907;28;20253;-59
2023/07/14 07:10:34;;;;;;;2.40;2.20;;;;;;;;;;5095203;28;20217;-59
2023/07/14 07:13:02;;;;;;;3.30;2.35;;;;;;;;;;5096505;28;20208;-59
2023/07/14 07:15:29;;;;;;;2.92;2.45;;;;;;;;;;5097022;28;20204;-59
2023/07/14 07:17:57;;;;;;;3.00;2.38;;;;;;;;;;5096253;28;20211;-59
2023/07/14 07:20:26;;;;;;;2.85;2.17;;;;;;;;;;5096491;28;20509;-59
2023/07/14 07:22:54;;;;;;;4.13;2.42;;;;;;;;;;5097218;28;20298;-59
2023/07/14 07:25:22;;;;;;;5.72;2.80;;;;;;;;;;5096440;28;20722;-59
2023/07/14 07:27:49;;;;;;;3.65;2.38;;;;;;;;;;5096624;28;20231;-59
2023/07/14 07:30:17;;;;;;;3.97;2.70;;;;;;;;;;5096585;28;20199;-60
2023/07/14 07:32:46;;;;;;;3.08;2.20;;;;;;;;;;5097374;28;20218;-60
2023/07/14 07:35:14;;;;;;;3.13;2.20;;;;;;;;;;5096995;28;20203;-59
2023/07/14 07:37:43;;;;;;;4.28;2.10;;;;;;;;;;5096244;28;20199;-59
2023/07/14 07:40:11;;;;;;;4.05;1.77;;;;;;;;;;5096519;28;20336;-60
2023/07/14 07:42:40;;;;;;;3.88;2.05;;;;;;;;;;5096347;28;20203;-59
2023/07/14 07:45:08;;;;;;;4.30;1.92;;;;;;;;;;5096358;28;20634;-59
2023/07/14 07:47:36;;;;;;;3.47;1.80;;;;;;;;;;5096354;28;20211;-59
2023/07/14 07:50:04;;;;;;;1.77;1.67;;;;;;;;;;5096030;28;20239;-60
2023/07/14 07:52:32;;;;;;;2.22;1.63;;;;;;;;;;5096588;28;20204;-60
2023/07/14 07:55:00;;;;;;;2.67;2.05;;;;;;;;;;5096216;28;20242;-59
2023/07/14 07:57:28;;;;;;;1.67;1.40;;;;;;;;;;5096362;28;20265;-59
2023/07/14 07:59:56;;;;;;;3.05;1.52;;;;;;;;;;5095901;28;20268;-59
2023/07/14 08:02:24;;;;;;;1.77;1.50;;;;;;;;;;5095799;28;20204;-59
2023/07/14 08:04:52;;;;;;;2.47;1.58;;;;;;;;;;5094917;28;20310;-59
2023/07/14 08:07:19;;;;;;;2.30;1.50;;;;;;;;;;5094270;28;20212;-60
2023/07/14 08:09:47;;;;;;;2.35;1.55;;;;;;;;;;5095245;28;20501;-59
2023/07/14 08:12:21;;;;;;;1.88;1.63;;;;;;;;;;5094112;28;20207;-59
2023/07/14 08:14:52;;;;;;;2.17;1.70;;;;;;;;;;5095294;28;20269;-59
2023/07/14 08:17:23;;;;;;;2.08;1.63;;;;;;;;;;5095285;28;20249;-59
2023/07/14 08:19:51;;;;;;;1.40;1.30;;;;;;;;;;5094204;28;20294;-59
2023/07/14 08:22:19;;;;;;;2.72;1.40;;;;;;;;;;5095338;28;20203;-59
2023/07/14 08:24:47;;;;;;;2.97;1.35;;;;;;;;;;5095952;28;20493;-59
2023/07/14 08:27:15;;;;;;;1.40;1.30;;;;;;;;;;5095027;28;20214;-59
2023/07/14 08:29:46;;;;;;;1.73;1.60;;;;;;;;;;5095821;28;20227;-59
2023/07/14 08:32:15;;;;;;;1.90;1.60;;;;;;;;;;5099147;28;20204;-59
2023/07/14 08:34:43;;;;;;;1.50;1.40;;;;;;;;;;5099782;28;20753;-59
2023/07/14 08:37:11;;;;;;;2.55;1.55;;;;;;;;;;5099777;28;20231;-60
2023/07/14 08:39:39;;;;;;;2.33;1.60;;;;;;;;;;5099270;28;20210;-60
2023/07/14 08:42:10;;;;;;;1.73;1.60;;;;;;;;;;5099256;28;20501;-59
2023/07/14 08:44:48;;;;;;;2.00;1.58;;;;;;;;;;5099039;28;20286;-60
2023/07/14 08:47:20;;;;;;;2.63;1.48;;;;;;;;;;5098203;28;20204;-60
2023/07/14 08:49:50;;;;;;;1.58;1.48;;;;;;;;;;5098540;28;20223;-59
2023/07/14 08:52:26;;;;;;;2.40;1.70;;;;;;;;;;5098479;28;20199;-59
2023/07/14 08:54:59;;;;;;;2.00;1.80;;;;;;;;;;5097973;28;20227;-59
2023/07/14 08:57:27;;;;;;;2.75;1.80;;;;;;;;;;5099294;28;20195;-59
2023/07/14 08:59:56;;;;;;;2.00;1.70;;;;;;;;;;5098750;28;20210;-59
2023/07/14 09:02:27;;;;;;;1.70;1.60;;;;;;;;;;5098870;28;20302;-59
2023/07/14 09:04:58;;;;;;;2.13;1.85;;;;;;;;;;5098741;28;20199;-59
2023/07/14 09:07:26;;;;;;;2.35;1.92;;;;;;;;;;5098916;28;20215;-60
2023/07/14 09:09:54;;;;;;;1.92;1.80;;;;;;;;;;5098689;28;20263;-60
2023/07/14 09:12:25;;;;;;;3.33;2.00;;;;;;;;;;5099439;28;20265;-59
2023/07/14 09:14:57;;;;;;;2.10;1.90;;;;;;;;;;5098556;28;20204;-60
2023/07/14 09:17:31;;;;;;;1.73;1.63;;;;;;;;;;5098101;28;20622;-60
2023/07/14 09:20:13;;;;;;;3.00;2.03;;;;;;;;;;5098671;28;20298;-59
2023/07/14 09:22:45;;;;;;;1.90;1.80;;;;;;;;;;5098658;28;20322;-59
2023/07/14 09:25:15;;;;;;;3.90;2.10;;;;;;;;;;5098735;28;20218;-59
2023/07/14 09:27:43;;;;;;;3.88;2.00;;;;;;;;;;5098360;28;20235;-59
2023/07/14 09:30:16;;;;;;;2.50;2.30;;;;;;;;;;5098081;28;20231;-60
2023/07/14 09:32:49;;;;;;;1.98;1.88;;;;;;;;;;5097884;28;20199;-60
2023/07/14 09:35:18;;;;;;;3.40;2.15;;;;;;;;;;5098254;28;20210;-59
2023/07/14 09:37:47;;;;;;;3.38;2.28;;;;;;;;;;5098032;28;20211;-60
2023/07/14 09:40:18;;;;;;;3.45;2.33;;;;;;;;;;5097779;28;20200;-59
2023/07/14 09:42:47;;;;;;;2.72;1.85;;;;;;;;;;5096966;28;20203;-59
2023/07/14 09:45:17;;;;;;;2.47;1.95;;;;;;;;;;5098284;28;20234;-59
